Time;durP1;ratioP1;P1;durP2;ratioP2;P2;SDS_P1;SDS_P2;PMS_P1;PMS_P2;Temp;Humidity;BMP_temperature;BMP_pressure;BME280_temperature;BME280_humidity;BME280_pressure;Samples;Min_cycle;Max_cycle;Signal;HPM_P1;HPM_P2
2021/11/09 00:00:50;;;;;;;380.80;362.90;;;5.60;99.90;;;;;;4414799;32;20143;-61
2021/11/09 00:03:16;;;;;;;384.77;366.13;;;5.70;99.90;;;;;;4408672;32;20149;-62
2021/11/09 00:05:50;;;;;;;369.33;351.53;;;5.70;99.90;;;;;;4415007;32;20144;-61
2021/11/09 00:08:20;;;;;;;377.90;360.50;;;5.60;99.90;;;;;;4406798;32;20160;-61
2021/11/09 00:10:47;;;;;;;375.53;357.57;;;5.70;99.90;;;;;;4406421;32;20219;-61
2021/11/09 00:13:16;;;;;;;385.43;368.23;;;5.70;99.90;;;;;;4406646;32;20494;-60
2021/11/09 00:15:44;;;;;;;372.43;354.50;;;5.60;99.90;;;;;;4415803;32;20228;-60
2021/11/09 00:18:12;;;;;;;368.97;350.73;;;5.60;99.90;;;;;;4406638;32;20239;-60
2021/11/09 00:20:40;;;;;;;364.87;347.20;;;5.60;99.90;;;;;;4407810;32;20152;-60
2021/11/09 00:23:08;;;;;;;364.97;347.93;;;5.50;99.90;;;;;;4406510;32;20164;-60
2021/11/09 00:25:36;;;;;;;388.43;370.53;;;5.50;99.90;;;;;;4406556;32;20182;-60
2021/11/09 00:28:04;;;;;;;363.20;346.17;;;5.50;99.90;;;;;;4407728;32;20610;-60
2021/11/09 00:30:32;;;;;;;353.90;336.90;;;5.50;99.90;;;;;;4411707;32;20156;-60
2021/11/09 00:33:00;;;;;;;373.53;355.37;;;5.50;99.90;;;;;;4410545;32;20148;-60
2021/11/09 00:35:30;;;;;;;367.47;350.17;;;5.50;99.90;;;;;;4410177;32;20650;-59
2021/11/09 00:37:59;;;;;;;348.57;331.73;;;5.50;99.90;;;;;;4407551;32;20606;-61
2021/11/09 00:40:29;;;;;;;355.40;339.37;;;5.50;99.90;;;;;;4406876;32;20190;-59
2021/11/09 00:42:56;;;;;;;356.93;340.07;;;5.50;99.90;;;;;;4407529;32;20484;-61
2021/11/09 00:45:23;;;;;;;366.27;349.07;;;5.50;99.90;;;;;;4407853;32;20140;-60
2021/11/09 00:47:50;;;;;;;349.80;333.33;;;5.40;99.90;;;;;;4408148;32;20163;-59
2021/11/09 00:50:22;;;;;;;352.53;335.37;;;5.40;99.90;;;;;;4414750;32;20163;-60
2021/11/09 00:52:49;;;;;;;358.90;342.53;;;5.40;99.90;;;;;;4406395;32;20144;-61
2021/11/09 00:55:16;;;;;;;378.20;359.73;;;5.40;99.90;;;;;;4406327;32;20195;-59
2021/11/09 00:57:44;;;;;;;361.00;343.77;;;5.40;99.90;;;;;;4408376;32;20217;-59
2021/11/09 01:00:14;;;;;;;366.17;349.03;;;5.40;99.90;;;;;;4406739;32;20555;-59
2021/11/09 01:02:41;;;;;;;351.70;335.27;;;5.30;99.90;;;;;;4415088;32;20165;-61
2021/11/09 01:05:09;;;;;;;339.23;322.83;;;5.20;99.90;;;;;;4412016;32;20155;-60
2021/11/09 01:07:37;;;;;;;359.67;342.23;;;5.30;99.90;;;;;;4419546;32;20203;-60
2021/11/09 01:10:06;;;;;;;349.43;332.57;;;5.30;99.90;;;;;;4406006;32;20182;-61
2021/11/09 01:12:33;;;;;;;352.97;336.20;;;5.30;99.90;;;;;;4405853;32;20144;-60
2021/11/09 01:15:00;;;;;;;348.00;331.67;;;5.20;99.90;;;;;;4407396;32;20438;-60
2021/11/09 01:17:28;;;;;;;357.80;341.03;;;5.30;99.90;;;;;;4406884;32;20156;-61
2021/11/09 01:19:55;;;;;;;351.20;334.27;;;5.20;99.90;;;;;;4417162;32;20469;-61
2021/11/09 01:22:22;;;;;;;337.50;320.83;;;5.10;99.90;;;;;;4409931;32;20162;-62
2021/11/09 01:24:50;;;;;;;332.07;316.60;;;5.10;99.90;;;;;;4408822;32;20152;-60
2021/11/09 01:27:19;;;;;;;350.93;333.53;;;5.10;99.90;;;;;;4406527;32;20584;-61
2021/11/09 01:29:46;;;;;;;371.80;355.07;;;5.10;99.90;;;;;;4409140;32;20589;-60
2021/11/09 01:32:12;;;;;;;358.47;341.67;;;5.00;99.90;;;;;;4415090;32;20166;-62
2021/11/09 01:34:39;;;;;;;351.30;335.23;;;5.10;99.90;;;;;;4407253;32;20163;-60
2021/11/09 01:37:07;;;;;;;354.73;337.87;;;5.00;99.90;;;;;;4405639;32;20144;-61
2021/11/09 01:39:34;;;;;;;349.43;332.73;;;5.10;99.90;;;;;;4405902;32;20564;-60
2021/11/09 01:42:03;;;;;;;352.53;336.37;;;5.10;99.90;;;;;;4410228;32;20168;-60
2021/11/09 01:44:30;;;;;;;368.30;349.67;;;5.10;99.90;;;;;;4406206;32;20419;-61
2021/11/09 01:46:57;;;;;;;346.97;330.53;;;5.00;99.90;;;;;;4407333;32;20171;-60
2021/11/09 01:49:23;;;;;;;353.23;336.60;;;5.00;99.90;;;;;;4405456;32;20155;-60
2021/11/09 01:51:50;;;;;;;326.87;310.97;;;5.00;99.90;;;;;;4405671;32;20182;-60
2021/11/09 01:54:18;;;;;;;335.63;319.93;;;5.00;99.90;;;;;;4408598;32;20151;-60
2021/11/09 01:56:45;;;;;;;351.73;334.27;;;5.00;99.90;;;;;;4411566;32;20258;-60
2021/11/09 01:59:13;;;;;;;326.23;310.83;;;5.00;99.90;;;;;;4405456;32;20155;-60
2021/11/09 02:01:42;;;;;;;335.73;319.47;;;5.00;99.90;;;;;;4406140;32;20582;-60
2021/11/09 02:04:11;;;;;;;355.93;338.53;;;5.00;99.90;;;;;;4405451;32;20136;-60
2021/11/09 02:06:38;;;;;;;363.87;346.07;;;5.00;99.90;;;;;;4406058;32;20149;-60
2021/11/09 02:09:08;;;;;;;347.50;330.97;;;5.00;99.90;;;;;;4408157;32;20183;-60
2021/11/09 02:11:35;;;;;;;347.60;331.33;;;4.90;99.90;;;;;;4405777;32;20156;-60
2021/11/09 02:14:02;;;;;;;354.67;338.27;;;4.90;99.90;;;;;;4407508;32;20190;-60
2021/11/09 02:16:31;;;;;;;323.60;307.40;;;5.00;99.90;;;;;;4405075;32;20174;-60
2021/11/09 02:18:58;;;;;;;352.40;335.23;;;4.90;99.90;;;;;;4406916;32;20471;-60
2021/11/09 02:21:27;;;;;;;338.27;322.23;;;5.00;99.90;;;;;;4406053;32;20213;-60
2021/11/09 02:23:54;;;;;;;328.50;313.57;;;4.90;99.90;;;;;;4405267;32;20193;-61
2021/11/09 02:26:23;;;;;;;343.30;326.53;;;5.00;99.90;;;;;;4404946;32;20167;-59
2021/11/09 02:28:53;;;;;;;336.73;320.30;;;5.00;99.90;;;;;;4405177;32;20139;-61
2021/11/09 02:31:20;;;;;;;325.30;310.10;;;5.00;99.90;;;;;;4405454;32;20584;-60
2021/11/09 02:33:48;;;;;;;348.37;332.03;;;4.90;99.90;;;;;;4408627;32;20154;-61
2021/11/09 02:36:17;;;;;;;351.03;334.10;;;5.00;99.90;;;;;;4407743;32;20187;-60
2021/11/09 02:38:46;;;;;;;332.23;315.57;;;5.00;99.90;;;;;;4417441;32;20577;-60
2021/11/09 02:41:12;;;;;;;338.77;322.30;;;4.90;99.90;;;;;;4411265;32;20588;-60
2021/11/09 02:43:40;;;;;;;347.03;330.53;;;5.00;99.90;;;;;;4407668;32;20601;-60
2021/11/09 02:48:58;;;;;;;336.67;319.83;;;5.00;99.90;;;;;;4411003;32;20238;-60
2021/11/09 02:51:29;;;;;;;334.33;318.30;;;5.00;99.90;;;;;;4409809;32;20174;-59
2021/11/09 02:54:02;;;;;;;323.23;308.07;;;5.00;99.90;;;;;;4407712;32;20140;-60
2021/11/09 02:56:33;;;;;;;325.63;310.60;;;4.90;99.90;;;;;;4417138;32;20496;-60
2021/11/09 02:59:06;;;;;;;340.33;323.70;;;5.00;99.90;;;;;;4412151;32;20151;-60
2021/11/09 03:01:36;;;;;;;329.77;313.53;;;5.00;99.90;;;;;;4411435;32;20591;-60
2021/11/09 03:04:07;;;;;;;328.27;311.77;;;5.00;99.90;;;;;;4420065;32;20624;-60
2021/11/09 03:06:39;;;;;;;322.20;306.23;;;4.90;99.90;;;;;;4407936;32;20135;-61
2021/11/09 03:09:11;;;;;;;305.27;290.20;;;4.90;99.90;;;;;;4409032;32;20201;-61
2021/11/09 03:11:43;;;;;;;320.80;305.47;;;4.90;99.90;;;;;;4411757;32;20254;-60
2021/11/09 03:14:10;;;;;;;328.17;312.27;;;4.90;99.90;;;;;;4416220;32;20144;-60
2021/11/09 03:16:40;;;;;;;315.00;299.63;;;4.90;99.90;;;;;;4414879;32;20150;-60
2021/11/09 03:19:17;;;;;;;342.97;326.70;;;4.80;99.90;;;;;;4409014;32;20139;-61
2021/11/09 03:44:22;;;;;;;312.37;296.70;;;4.70;99.90;;;;;;4365406;32;20154;-59
2021/11/09 03:46:53;;;;;;;338.03;320.60;;;4.60;99.90;;;;;;4365582;32;20157;-60
2021/11/09 03:49:22;;;;;;;327.30;311.37;;;4.60;99.90;;;;;;4373040;32;20235;-60
2021/11/09 03:51:50;;;;;;;322.53;307.00;;;4.60;99.90;;;;;;4362986;32;20214;-60
2021/11/09 03:54:19;;;;;;;323.47;308.17;;;4.70;99.90;;;;;;4366709;32;20620;-60
2021/11/09 03:56:51;;;;;;;334.17;317.00;;;4.80;99.90;;;;;;4361910;32;20206;-59
2021/11/09 03:59:22;;;;;;;323.10;307.43;;;4.70;99.90;;;;;;4372742;32;20186;-60
2021/11/09 04:02:03;;;;;;;327.37;310.20;;;4.70;99.90;;;;;;4363158;32;20164;-60
2021/11/09 04:04:36;;;;;;;312.20;297.13;;;4.70;99.90;;;;;;4372580;32;20152;-60
2021/11/09 04:07:10;;;;;;;305.30;290.07;;;4.70;99.90;;;;;;4363531;32;20711;-60
2021/11/09 04:09:52;;;;;;;334.23;318.70;;;4.70;99.90;;;;;;4370074;32;20647;-60
2021/11/09 04:12:34;;;;;;;296.43;282.43;;;4.70;99.90;;;;;;4371612;32;20159;-59
2021/11/09 04:15:12;;;;;;;289.20;274.83;;;4.70;99.90;;;;;;4363609;32;20153;-60
2021/11/09 04:17:56;;;;;;;307.80;292.97;;;4.60;99.90;;;;;;4361694;32;20148;-59
2021/11/09 04:20:40;;;;;;;305.40;290.77;;;4.60;99.90;;;;;;4389055;32;20181;-60
2021/11/09 04:23:38;;;;;;;304.70;290.10;;;4.60;99.90;;;;;;4408601;32;20143;-59
2021/11/09 04:26:29;;;;;;;304.10;289.63;;;4.60;99.90;;;;;;4406451;32;20152;-59
2021/11/09 04:29:08;;;;;;;310.07;295.57;;;4.60;99.90;;;;;;4409426;32;20147;-60
2021/11/09 05:02:42;;;;;;;318.13;302.87;;;4.40;99.90;;;;;;4409726;32;20192;-60
2021/11/09 05:10:39;;;;;;;321.27;304.63;;;4.50;99.90;;;;;;4405907;32;20154;-60
2021/11/09 05:13:07;;;;;;;322.47;306.97;;;4.50;99.90;;;;;;4418800;32;20147;-59
2021/11/09 05:15:34;;;;;;;327.07;309.90;;;4.50;99.90;;;;;;4407071;32;20174;-60
2021/11/09 05:18:02;;;;;;;323.83;307.57;;;4.40;99.90;;;;;;4406104;32;20169;-59
2021/11/09 05:20:30;;;;;;;321.77;305.10;;;4.40;99.90;;;;;;4410007;32;20505;-61
2021/11/09 05:22:58;;;;;;;338.93;322.43;;;4.50;99.90;;;;;;4410228;32;20152;-60
2021/11/09 05:25:26;;;;;;;326.80;310.57;;;4.50;99.90;;;;;;4405040;32;20136;-60
2021/11/09 05:27:53;;;;;;;342.50;325.37;;;4.50;99.90;;;;;;4405543;32;20491;-60
2021/11/09 05:30:21;;;;;;;330.77;313.50;;;4.50;99.90;;;;;;4407399;32;20172;-60
2021/11/09 05:32:49;;;;;;;325.67;309.70;;;4.50;99.90;;;;;;4405439;32;20148;-61
2021/11/09 05:35:21;;;;;;;316.57;300.60;;;4.50;99.90;;;;;;4405737;32;20183;-61
2021/11/09 05:37:50;;;;;;;321.90;305.53;;;4.60;99.90;;;;;;4410259;32;20135;-59
2021/11/09 05:40:18;;;;;;;330.67;314.77;;;4.50;99.90;;;;;;4406613;32;20179;-59
2021/11/09 05:42:45;;;;;;;331.30;314.73;;;4.40;99.90;;;;;;4406404;32;20155;-59
2021/11/09 05:45:17;;;;;;;339.13;322.00;;;4.40;99.90;;;;;;4415670;32;20242;-59
2021/11/09 05:47:43;;;;;;;330.57;314.43;;;4.40;99.90;;;;;;4405501;32;20185;-59
2021/11/09 05:50:11;;;;;;;324.77;308.50;;;4.40;99.90;;;;;;4410382;32;20145;-59
2021/11/09 05:52:39;;;;;;;328.97;312.30;;;4.50;99.90;;;;;;4413059;32;20170;-59
2021/11/09 05:55:07;;;;;;;326.17;310.00;;;4.40;99.90;;;;;;4412877;32;20147;-60
2021/11/09 05:57:34;;;;;;;326.97;310.87;;;4.40;99.90;;;;;;4405854;32;20158;-59
2021/11/09 06:00:03;;;;;;;323.83;307.17;;;4.50;99.90;;;;;;4406790;32;20143;-60
2021/11/09 06:02:30;;;;;;;325.20;308.40;;;4.40;99.90;;;;;;4410225;32;20226;-60
2021/11/09 06:04:57;;;;;;;307.87;291.20;;;4.40;99.90;;;;;;4407942;32;20174;-60
2021/11/09 06:07:24;;;;;;;313.87;298.47;;;4.40;99.90;;;;;;4409229;32;20178;-59
2021/11/09 06:09:52;;;;;;;314.17;298.03;;;4.40;99.90;;;;;;4412394;32;20222;-59
2021/11/09 06:12:19;;;;;;;318.17;302.30;;;4.40;99.90;;;;;;4411793;32;20268;-59
2021/11/09 06:14:46;;;;;;;355.77;337.23;;;4.40;99.90;;;;;;4409748;32;20155;-59
2021/11/09 06:17:12;;;;;;;336.57;319.30;;;4.50;99.90;;;;;;4409872;32;20159;-59
2021/11/09 06:19:39;;;;;;;324.70;308.33;;;4.50;99.90;;;;;;4410892;32;20311;-59
2021/11/09 06:22:06;;;;;;;324.13;307.67;;;4.40;99.90;;;;;;4409869;32;20247;-59
2021/11/09 06:24:33;;;;;;;326.33;309.53;;;4.40;99.90;;;;;;4410159;32;20137;-60
2021/11/09 06:27:02;;;;;;;331.77;315.03;;;4.40;99.90;;;;;;4410568;32;20167;-60
2021/11/09 06:29:29;;;;;;;332.13;316.00;;;4.40;99.90;;;;;;4412226;32;20162;-60
2021/11/09 06:31:58;;;;;;;336.27;318.63;;;4.50;99.90;;;;;;4409192;32;20166;-59
2021/11/09 06:34:24;;;;;;;324.13;307.17;;;4.50;99.90;;;;;;4409955;32;20147;-59
2021/11/09 06:36:51;;;;;;;328.37;311.37;;;4.50;99.90;;;;;;4412404;32;20169;-60
2021/11/09 06:39:18;;;;;;;325.47;308.90;;;4.60;99.90;;;;;;4415494;32;20160;-60
2021/11/09 06:41:45;;;;;;;324.60;308.37;;;4.60;99.90;;;;;;4411878;32;20163;-60
2021/11/09 06:44:13;;;;;;;323.97;307.90;;;4.50;99.90;;;;;;4409847;32;20156;-59
2021/11/09 06:46:41;;;;;;;336.20;317.73;;;4.50;99.90;;;;;;4408157;32;20147;-60
2021/11/09 06:49:08;;;;;;;321.67;305.00;;;4.50;99.90;;;;;;4408863;32;20209;-59
2021/11/09 06:51:35;;;;;;;326.00;309.37;;;4.60;99.90;;;;;;4409782;32;20467;-59
2021/11/09 06:54:02;;;;;;;326.77;310.97;;;4.60;99.90;;;;;;4409861;32;20237;-58
2021/11/09 06:56:29;;;;;;;320.67;304.47;;;4.60;99.90;;;;;;4410156;32;20160;-60
2021/11/09 06:58:56;;;;;;;323.93;306.97;;;4.60;99.90;;;;;;4404694;32;20218;-59
2021/11/09 07:01:24;;;;;;;330.47;314.17;;;4.60;99.90;;;;;;4408920;32;20195;-59
2021/11/09 07:03:51;;;;;;;348.43;330.50;;;4.60;99.90;;;;;;4409338;32;20621;-61
2021/11/09 07:06:19;;;;;;;343.13;326.00;;;4.60;99.90;;;;;;4410662;32;20583;-60
2021/11/09 07:08:46;;;;;;;333.30;316.43;;;4.60;99.90;;;;;;4406806;32;20186;-59
2021/11/09 07:11:13;;;;;;;339.23;322.10;;;4.60;99.90;;;;;;4412380;32;20159;-59
2021/11/09 07:13:42;;;;;;;345.10;326.87;;;4.60;99.90;;;;;;4407039;32;20182;-59
2021/11/09 07:16:10;;;;;;;342.17;325.07;;;4.70;99.90;;;;;;4408144;32;20185;-59
2021/11/09 07:18:39;;;;;;;333.93;316.17;;;4.70;99.90;;;;;;4411291;32;20594;-59
2021/11/09 07:21:05;;;;;;;350.07;331.77;;;4.80;99.90;;;;;;4407785;32;20164;-59
2021/11/09 07:23:32;;;;;;;336.83;319.43;;;4.80;99.90;;;;;;4409630;32;20230;-59
2021/11/09 07:25:59;;;;;;;345.60;328.23;;;4.90;99.90;;;;;;4413749;32;20139;-59
2021/11/09 07:28:27;;;;;;;339.07;321.70;;;4.90;99.90;;;;;;4413247;32;20579;-59
2021/11/09 07:30:59;;;;;;;353.40;335.63;;;5.00;99.90;;;;;;4417908;32;20583;-59
2021/11/09 07:33:26;;;;;;;346.40;329.43;;;5.00;99.90;;;;;;4419956;32;20135;-60
2021/11/09 07:35:54;;;;;;;351.73;334.30;;;5.20;99.90;;;;;;4412127;32;20174;-60
2021/11/09 07:38:21;;;;;;;339.13;320.60;;;5.50;99.90;;;;;;4409293;32;20156;-59
2021/11/09 07:40:52;;;;;;;363.63;345.13;;;5.70;99.90;;;;;;4413675;32;20140;-60
2021/11/09 07:43:20;;;;;;;340.90;324.13;;;5.90;99.90;;;;;;4409040;32;20226;-60
2021/11/09 07:45:47;;;;;;;340.97;324.13;;;6.10;99.90;;;;;;4407832;32;20552;-60
2021/11/09 07:48:14;;;;;;;333.37;316.40;;;6.20;99.90;;;;;;4407366;32;20152;-60
2021/11/09 07:50:41;;;;;;;346.17;328.87;;;6.20;99.90;;;;;;4408138;32;20162;-60
2021/11/09 07:53:15;;;;;;;333.93;317.17;;;6.30;99.90;;;;;;4409026;32;20619;-60
2021/11/09 07:55:48;;;;;;;319.43;302.70;;;6.40;99.90;;;;;;4409126;32;20139;-59
2021/11/09 07:58:18;;;;;;;299.50;283.77;;;6.50;99.90;;;;;;4408677;32;20140;-60
2021/11/09 08:00:48;;;;;;;279.70;265.30;;;6.50;99.90;;;;;;4407256;32;20136;-59
2021/11/09 08:03:19;;;;;;;292.50;277.97;;;6.50;99.90;;;;;;4407074;32;20140;-60
2021/11/09 08:06:05;;;;;;;299.37;284.60;;;6.60;99.90;;;;;;4407179;32;20132;-60
2021/11/09 08:08:38;;;;;;;264.80;251.63;;;6.80;99.90;;;;;;4408259;32;20140;-60
2021/11/09 08:11:05;;;;;;;268.73;255.47;;;7.00;99.90;;;;;;4407436;32;20135;-59
2021/11/09 08:13:32;;;;;;;249.23;236.57;;;7.10;99.90;;;;;;4408678;32;20565;-61
2021/11/09 08:15:59;;;;;;;267.87;254.20;;;7.10;99.90;;;;;;4407386;32;20576;-60
2021/11/09 08:18:26;;;;;;;258.33;246.27;;;7.30;99.90;;;;;;4408332;32;20155;-60
2021/11/09 08:20:53;;;;;;;246.10;233.63;;;7.30;99.90;;;;;;4406328;32;20576;-60
2021/11/09 08:23:20;;;;;;;233.10;220.97;;;7.40;99.90;;;;;;4408337;32;20140;-61
2021/11/09 08:25:48;;;;;;;249.30;237.20;;;7.40;99.90;;;;;;4406990;32;20155;-60
2021/11/09 08:28:15;;;;;;;225.30;213.67;;;7.50;99.90;;;;;;4406752;32;20149;-62
2021/11/09 08:30:42;;;;;;;236.13;224.70;;;7.50;99.90;;;;;;4406172;32;20158;-59
2021/11/09 08:33:09;;;;;;;287.97;274.33;;;7.60;99.90;;;;;;4406665;32;20168;-60
2021/11/09 08:35:36;;;;;;;250.03;237.20;;;7.70;99.90;;;;;;4408464;32;20151;-60
2021/11/09 08:38:05;;;;;;;268.87;256.07;;;7.80;99.90;;;;;;4407776;32;20136;-61
2021/11/09 08:40:34;;;;;;;268.77;256.33;;;7.90;99.90;;;;;;4407521;32;20156;-60
2021/11/09 08:43:03;;;;;;;245.40;233.10;;;8.10;99.90;;;;;;4407358;32;20156;-61
2021/11/09 08:45:35;;;;;;;234.43;222.60;;;8.10;99.90;;;;;;4407023;32;20514;-59
2021/11/09 08:48:09;;;;;;;252.07;239.63;;;8.10;99.90;;;;;;4406610;32;20136;-60
2021/11/09 08:50:37;;;;;;;257.83;244.40;;;8.10;99.90;;;;;;4408099;32;20575;-60
2021/11/09 08:53:43;;;;;;;288.33;274.27;;;8.10;99.90;;;;;;4407666;32;20164;-60
2021/11/09 08:56:28;;;;;;;242.57;230.37;;;8.20;99.90;;;;;;4411537;32;20159;-60
2021/11/09 09:04:31;;;;;;;266.87;254.60;;;8.40;99.90;;;;;;4411781;32;20148;-60
2021/11/09 09:07:02;;;;;;;256.20;243.40;;;8.60;99.90;;;;;;4421509;32;20144;-60
2021/11/09 09:09:28;;;;;;;235.57;223.87;;;8.80;99.90;;;;;;4420947;32;20176;-61
2021/11/09 09:11:56;;;;;;;260.67;247.83;;;8.80;99.90;;;;;;4421407;32;20152;-60
2021/11/09 09:14:25;;;;;;;257.07;244.73;;;9.00;99.90;;;;;;4422392;32;20568;-60
2021/11/09 09:16:52;;;;;;;267.93;255.07;;;9.00;99.90;;;;;;4423092;32;20197;-60
2021/11/09 09:19:26;;;;;;;275.43;262.17;;;9.20;99.90;;;;;;4423009;32;20215;-60
2021/11/09 09:21:57;;;;;;;277.73;264.60;;;9.30;99.90;;;;;;4421400;32;20148;-60
2021/11/09 09:24:33;;;;;;;270.23;256.73;;;9.30;99.90;;;;;;4411793;32;20160;-60
2021/11/09 09:27:09;;;;;;;296.37;282.20;;;9.40;99.90;;;;;;4422915;32;20427;-60
2021/11/09 09:29:43;;;;;;;269.37;256.83;;;9.50;99.90;;;;;;4421114;32;20213;-61
2021/11/09 09:54:50;;;;;;;272.43;258.37;;;10.20;99.90;;;;;;4328097;33;20667;-62
2021/11/09 09:57:18;;;;;;;304.00;289.13;;;10.20;99.90;;;;;;4328347;33;20546;-62
2021/11/09 09:59:46;;;;;;;284.60;271.13;;;10.40;99.90;;;;;;4328760;33;20182;-61
2021/11/09 10:02:17;;;;;;;306.37;291.63;;;10.50;99.90;;;;;;4321317;33;20174;-61
2021/11/09 10:04:46;;;;;;;296.37;282.47;;;10.50;99.90;;;;;;4313611;33;20553;-62
2021/11/09 10:07:26;;;;;;;293.33;278.93;;;10.50;99.90;;;;;;4313349;33;20237;-61
2021/11/09 10:09:52;;;;;;;301.17;286.87;;;10.60;99.90;;;;;;4313432;33;20621;-61
2021/11/09 10:12:25;;;;;;;301.70;287.33;;;10.70;99.90;;;;;;4322463;33;20180;-62
2021/11/09 10:14:56;;;;;;;299.53;285.90;;;10.90;99.90;;;;;;4327744;33;20169;-61
2021/11/09 10:17:27;;;;;;;263.80;251.20;;;10.90;99.90;;;;;;4314332;33;20198;-61
2021/11/09 10:19:55;;;;;;;276.63;263.03;;;10.90;99.90;;;;;;4324187;33;20221;-62
2021/11/09 10:22:25;;;;;;;270.63;257.57;;;11.00;99.90;;;;;;4343570;33;20241;-63
2021/11/09 10:24:55;;;;;;;271.70;258.67;;;11.10;99.90;;;;;;4355391;32;20163;-61
2021/11/09 10:27:23;;;;;;;244.27;231.97;;;11.20;99.90;;;;;;4405193;32;20473;-60
2021/11/09 10:29:52;;;;;;;236.60;225.17;;;11.30;99.90;;;;;;4404697;32;20163;-61
2021/11/09 10:32:24;;;;;;;204.83;194.87;;;11.40;99.90;;;;;;4405025;32;20199;-61
2021/11/09 10:34:52;;;;;;;225.60;214.83;;;11.40;99.90;;;;;;4405403;32;20208;-61
2021/11/09 10:37:25;;;;;;;232.80;221.10;;;11.30;99.90;;;;;;4406182;32;20188;-61
2021/11/09 10:39:55;;;;;;;232.17;221.37;;;11.40;99.90;;;;;;4405154;32;20517;-61
2021/11/09 10:42:23;;;;;;;219.83;209.63;;;11.50;99.90;;;;;;4405275;32;20149;-61
2021/11/09 10:44:56;;;;;;;218.93;208.60;;;11.60;99.90;;;;;;4406451;32;20142;-63
2021/11/09 10:47:27;;;;;;;220.93;210.00;;;11.70;99.90;;;;;;4405254;32;20154;-62
2021/11/09 10:49:57;;;;;;;213.13;203.03;;;11.80;99.90;;;;;;4407118;32;20154;-62
2021/11/09 10:52:28;;;;;;;221.73;210.53;;;11.90;99.90;;;;;;4406197;32;20205;-61
2021/11/09 10:55:04;;;;;;;200.50;190.43;;;12.10;99.90;;;;;;4415066;32;20192;-63
2021/11/09 10:57:48;;;;;;;184.13;174.90;;;12.00;99.90;;;;;;4416157;32;20224;-61
2021/11/09 11:00:45;;;;;;;203.70;193.83;;;11.80;99.90;;;;;;4424019;32;20145;-61
2021/11/09 11:06:15;;;;;;;186.57;177.37;;;11.90;99.90;;;;;;4420270;32;20212;-62
2021/11/09 11:08:42;;;;;;;192.90;183.40;;;11.90;99.90;;;;;;4422510;32;20139;-61
2021/11/09 11:11:20;;;;;;;191.87;182.17;;;12.00;99.90;;;;;;4423063;32;20162;-62
2021/11/09 11:13:47;;;;;;;189.43;180.43;;;11.80;99.90;;;;;;4422528;32;20132;-61
2021/11/09 11:16:16;;;;;;;189.27;179.73;;;11.80;99.90;;;;;;4423257;32;20175;-63
2021/11/09 11:18:47;;;;;;;194.87;185.43;;;11.70;99.90;;;;;;4422443;32;20219;-61
2021/11/09 11:21:16;;;;;;;184.47;175.53;;;11.70;99.90;;;;;;4407558;32;20224;-62
2021/11/09 11:23:44;;;;;;;190.80;180.77;;;11.80;99.90;;;;;;4406645;32;20155;-61
2021/11/09 11:26:12;;;;;;;196.87;186.97;;;11.80;99.90;;;;;;4407410;32;20598;-62
2021/11/09 11:28:41;;;;;;;194.13;184.73;;;11.70;99.90;;;;;;4407090;32;20170;-62
2021/11/09 11:31:09;;;;;;;202.93;192.77;;;11.60;99.90;;;;;;4406795;32;20132;-62
2021/11/09 11:33:41;;;;;;;191.83;181.73;;;11.60;99.90;;;;;;4407027;32;20155;-62
2021/11/09 11:36:10;;;;;;;224.27;212.90;;;11.60;99.90;;;;;;4406759;32;20186;-62
2021/11/09 11:38:41;;;;;;;219.53;208.93;;;11.50;99.90;;;;;;4406732;32;20144;-62
2021/11/09 11:41:08;;;;;;;208.53;198.50;;;11.60;99.90;;;;;;4406679;32;20147;-62
2021/11/09 11:43:56;;;;;;;252.17;240.27;;;11.60;99.90;;;;;;4406680;32;20238;-64
2021/11/09 11:46:51;;;;;;;224.10;213.63;;;11.70;99.90;;;;;;4406933;32;20543;-61
2021/11/09 11:49:23;;;;;;;201.47;191.07;;;11.80;99.90;;;;;;4406939;32;20211;-62
2021/11/09 11:52:14;;;;;;;205.53;195.10;;;11.80;99.90;;;;;;4406627;32;20170;-62
2021/11/09 11:54:54;;;;;;;217.57;206.77;;;11.80;99.90;;;;;;4407069;32;20135;-62
2021/11/09 11:57:44;;;;;;;232.77;221.77;;;11.80;99.90;;;;;;4407472;32;20140;-63
2021/11/09 12:00:40;;;;;;;209.60;199.53;;;11.90;99.90;;;;;;4407305;32;20513;-63
2021/11/09 12:03:40;;;;;;;193.87;184.50;;;12.00;99.90;;;;;;4407317;32;20463;-63
2021/11/09 12:06:22;;;;;;;201.67;191.03;;;12.00;99.90;;;;;;4408169;32;20523;-64
2021/11/09 12:08:52;;;;;;;210.60;200.27;;;11.90;99.90;;;;;;4408201;32;20208;-61
2021/11/09 12:11:49;;;;;;;229.47;218.40;;;11.90;99.90;;;;;;4408565;32;20140;-62
2021/11/09 12:14:17;;;;;;;230.43;219.00;;;12.10;99.90;;;;;;4408879;32;20609;-62
2021/11/09 12:16:52;;;;;;;220.33;209.37;;;12.20;99.90;;;;;;4406939;32;20151;-64
2021/11/09 12:19:55;;;;;;;247.63;236.40;;;12.10;99.90;;;;;;4407213;32;20174;-64
2021/11/09 12:22:26;;;;;;;225.63;214.77;;;12.20;99.90;;;;;;4406886;32;20147;-61
2021/11/09 12:24:58;;;;;;;212.17;202.10;;;12.40;99.90;;;;;;4408722;32;20223;-62
2021/11/09 12:27:29;;;;;;;253.03;241.97;;;12.40;99.90;;;;;;4407010;32;20529;-61
2021/11/09 12:29:58;;;;;;;242.60;231.23;;;12.40;99.90;;;;;;4408302;32;20219;-62
2021/11/09 12:32:36;;;;;;;235.40;224.57;;;12.60;99.90;;;;;;4408717;32;20203;-64
2021/11/09 12:35:24;;;;;;;236.73;225.63;;;12.70;99.90;;;;;;4408980;32;20189;-63
2021/11/09 12:38:07;;;;;;;215.00;204.73;;;12.80;99.90;;;;;;4421919;32;20193;-62
2021/11/09 12:40:37;;;;;;;223.87;213.60;;;12.80;99.90;;;;;;4408423;32;20151;-62
2021/11/09 12:43:12;;;;;;;229.40;219.27;;;12.60;99.90;;;;;;4406496;32;20170;-63
2021/11/09 12:45:42;;;;;;;244.97;234.20;;;12.70;99.90;;;;;;4406785;32;20158;-61
2021/11/09 12:48:11;;;;;;;255.93;244.60;;;12.70;99.90;;;;;;4406642;32;20148;-63
2021/11/09 12:50:45;;;;;;;230.80;220.53;;;12.60;99.90;;;;;;4406530;32;20464;-62
2021/11/09 12:53:13;;;;;;;241.77;230.97;;;12.80;99.90;;;;;;4406638;32;20173;-62
2021/11/09 12:55:45;;;;;;;233.83;223.27;;;12.90;99.90;;;;;;4406487;32;20583;-62
2021/11/09 12:58:15;;;;;;;242.43;231.57;;;12.80;99.90;;;;;;4407054;32;20480;-61
2021/11/09 13:00:45;;;;;;;230.20;219.40;;;12.80;99.90;;;;;;4406963;32;20520;-62
2021/11/09 13:03:30;;;;;;;251.97;240.73;;;12.80;99.90;;;;;;4406414;32;20227;-64
2021/11/09 13:06:05;;;;;;;230.37;219.43;;;12.80;99.90;;;;;;4408287;32;20135;-62
2021/11/09 13:08:43;;;;;;;232.27;222.03;;;12.80;99.90;;;;;;4406310;32;20131;-62
2021/11/09 13:11:31;;;;;;;242.13;231.27;;;12.90;99.90;;;;;;4405872;32;20686;-61
2021/11/09 13:14:04;;;;;;;230.90;220.30;;;13.00;99.90;;;;;;4407301;32;20165;-63
2021/11/09 13:16:32;;;;;;;227.30;216.90;;;13.00;99.90;;;;;;4406031;32;20156;-62
2021/11/09 13:19:05;;;;;;;227.17;217.13;;;13.00;99.90;;;;;;4406041;32;20155;-62
2021/11/09 13:21:33;;;;;;;239.50;228.67;;;13.00;99.90;;;;;;4408092;32;20148;-62
2021/11/09 13:23:59;;;;;;;240.80;230.03;;;13.00;99.90;;;;;;4408673;32;20163;-62
2021/11/09 13:26:26;;;;;;;249.30;238.17;;;13.00;99.90;;;;;;4416868;32;20162;-64
2021/11/09 13:28:56;;;;;;;239.40;228.23;;;13.00;99.90;;;;;;4412891;32;20167;-64
2021/11/09 13:31:30;;;;;;;257.00;245.33;;;13.10;99.90;;;;;;4411204;32;20193;-61
2021/11/09 13:33:57;;;;;;;253.77;242.60;;;13.00;99.90;;;;;;4411123;32;20167;-61
2021/11/09 13:36:24;;;;;;;228.83;218.53;;;12.90;99.90;;;;;;4411912;32;20271;-61
2021/11/09 13:38:51;;;;;;;238.57;227.57;;;12.90;99.90;;;;;;4411910;32;20183;-64
2021/11/09 13:41:26;;;;;;;246.30;235.10;;;12.90;99.90;;;;;;4411902;32;20243;-62
2021/11/09 13:43:59;;;;;;;221.93;212.00;;;12.80;99.90;;;;;;4357289;32;1720933;-63
2021/11/09 13:46:29;;;;;;;224.37;213.30;;;12.70;99.90;;;;;;4412135;32;20163;-62
2021/11/09 13:48:58;;;;;;;225.17;214.03;;;12.70;99.90;;;;;;4411906;32;20219;-64
2021/11/09 13:51:27;;;;;;;233.30;221.80;;;12.70;99.90;;;;;;4412428;32;20253;-62
2021/11/09 13:53:58;;;;;;;236.37;225.17;;;12.70;99.90;;;;;;4411061;32;20626;-62
2021/11/09 13:56:27;;;;;;;221.40;211.13;;;12.70;99.90;;;;;;4412833;32;20163;-63
2021/11/09 13:59:00;;;;;;;224.83;214.03;;;12.70;99.90;;;;;;4406881;32;20205;-64
2021/11/09 14:01:36;;;;;;;215.77;205.63;;;12.60;99.90;;;;;;4405950;32;20212;-62
2021/11/09 14:04:10;;;;;;;233.17;222.53;;;12.70;99.90;;;;;;4408755;32;20162;-63